sensor_id;sensor_type;location;lat;lon;timestamp;pressure;altitude;pressure_sealevel;temperature;humidity
29935;BME280;19905;53.370;-6.314;2023-03-22T00:01:47;98254.56;;;11.12;100.00
29935;BME280;19905;53.370;-6.314;2023-03-22T00:04:17;98238.56;;;11.14;100.00
29935;BME280;19905;53.370;-6.314;2023-03-22T00:06:46;98246.28;;;11.01;100.00
29935;BME280;19905;53.370;-6.314;2023-03-22T00:09:15;98253.72;;;10.82;100.00
29935;BME280;19905;53.370;-6.314;2023-03-22T00:11:44;98263.88;;;10.71;100.00
29935;BME280;19905;53.370;-6.314;2023-03-22T00:14:19;98267.81;;;10.75;100.00
29935;BME280;19905;53.370;-6.314;2023-03-22T00:16:48;98267.47;;;10.78;100.00
29935;BME280;19905;53.370;-6.314;2023-03-22T00:19:17;98263.63;;;10.80;100.00
29935;BME280;19905;53.370;-6.314;2023-03-22T00:21:48;98263.28;;;10.83;100.00
29935;BME280;19905;53.370;-6.314;2023-03-22T00:24:18;98248.66;;;10.96;100.00
29935;BME280;19905;53.370;-6.314;2023-03-22T00:26:47;98237.16;;;10.88;100.00
29935;BME280;19905;53.370;-6.314;2023-03-22T00:29:16;98253.81;;;11.04;100.00
29935;BME280;19905;53.370;-6.314;2023-03-22T00:31:45;98244.38;;;11.09;100.00
29935;BME280;19905;53.370;-6.314;2023-03-22T00:34:15;98252.41;;;11.16;100.00
29935;BME280;19905;53.370;-6.314;2023-03-22T00:36:43;98280.72;;;11.22;100.00
29935;BME280;19905;53.370;-6.314;2023-03-22T00:39:14;98260.06;;;11.26;100.00
29935;BME280;19905;53.370;-6.314;2023-03-22T00:41:42;98272.25;;;11.12;100.00
29935;BME280;19905;53.370;-6.314;2023-03-22T00:44:11;98264.97;;;10.76;100.00
29935;BME280;19905;53.370;-6.314;2023-03-22T00:46:39;98290.88;;;10.58;100.00
29935;BME280;19905;53.370;-6.314;2023-03-22T00:49:08;98303.63;;;10.54;100.00
29935;BME280;19905;53.370;-6.314;2023-03-22T00:51:37;98306.41;;;10.53;100.00
29935;BME280;19905;53.370;-6.314;2023-03-22T00:54:06;98303.16;;;10.51;100.00
29935;BME280;19905;53.370;-6.314;2023-03-22T00:56:37;98309.06;;;10.53;100.00
29935;BME280;19905;53.370;-6.314;2023-03-22T00:59:07;98325.19;;;10.58;100.00
29935;BME280;19905;53.370;-6.314;2023-03-22T01:01:36;98351.13;;;10.54;100.00
29935;BME280;19905;53.370;-6.314;2023-03-22T01:04:07;98327.00;;;10.34;100.00
29935;BME280;19905;53.370;-6.314;2023-03-22T01:06:35;98336.09;;;10.24;100.00
29935;BME280;19905;53.370;-6.314;2023-03-22T01:09:04;98308.63;;;10.10;100.00
29935;BME280;19905;53.370;-6.314;2023-03-22T01:11:35;98320.84;;;10.03;100.00
29935;BME280;19905;53.370;-6.314;2023-03-22T01:14:04;98300.66;;;9.87;100.00
29935;BME280;19905;53.370;-6.314;2023-03-22T01:16:36;98307.78;;;9.78;100.00
29935;BME280;19905;53.370;-6.314;2023-03-22T01:19:04;98330.38;;;9.73;100.00
29935;BME280;19905;53.370;-6.314;2023-03-22T01:21:33;98318.88;;;9.65;100.00
29935;BME280;19905;53.370;-6.314;2023-03-22T01:24:02;98325.31;;;9.63;100.00
29935;BME280;19905;53.370;-6.314;2023-03-22T01:26:31;98332.94;;;9.50;100.00
29935;BME280;19905;53.370;-6.314;2023-03-22T01:29:01;98357.16;;;9.45;100.00
29935;BME280;19905;53.370;-6.314;2023-03-22T01:31:29;98329.69;;;9.23;100.00
29935;BME280;19905;53.370;-6.314;2023-03-22T01:33:58;98342.34;;;9.11;100.00
29935;BME280;19905;53.370;-6.314;2023-03-22T01:36:28;98337.25;;;9.02;100.00
29935;BME280;19905;53.370;-6.314;2023-03-22T01:38:58;98346.47;;;8.98;100.00
29935;BME280;19905;53.370;-6.314;2023-03-22T01:41:28;98359.16;;;8.94;100.00
29935;BME280;19905;53.370;-6.314;2023-03-22T01:44:11;98346.63;;;8.88;100.00
29935;BME280;19905;53.370;-6.314;2023-03-22T01:46:41;98363.09;;;8.82;100.00
29935;BME280;19905;53.370;-6.314;2023-03-22T01:49:12;98364.59;;;8.76;100.00
29935;BME280;19905;53.370;-6.314;2023-03-22T01:51:44;98377.88;;;8.75;100.00
29935;BME280;19905;53.370;-6.314;2023-03-22T01:54:17;98383.66;;;8.62;100.00
29935;BME280;19905;53.370;-6.314;2023-03-22T01:56:49;98389.88;;;8.53;100.00
29935;BME280;19905;53.370;-6.314;2023-03-22T01:59:19;98400.53;;;8.51;100.00
29935;BME280;19905;53.370;-6.314;2023-03-22T02:01:49;98385.91;;;8.49;100.00
29935;BME280;19905;53.370;-6.314;2023-03-22T02:04:19;98348.88;;;8.42;100.00
29935;BME280;19905;53.370;-6.314;2023-03-22T02:06:52;98407.84;;;8.31;100.00
29935;BME280;19905;53.370;-6.314;2023-03-22T02:09:23;98409.16;;;8.27;100.00
29935;BME280;19905;53.370;-6.314;2023-03-22T02:12:02;98421.13;;;8.22;100.00
29935;BME280;19905;53.370;-6.314;2023-03-22T02:14:47;98420.13;;;8.14;100.00
29935;BME280;19905;53.370;-6.314;2023-03-22T02:17:32;98416.19;;;8.19;100.00
29935;BME280;19905;53.370;-6.314;2023-03-22T02:26:42;98450.56;;;7.91;100.00
29935;BME280;19905;53.370;-6.314;2023-03-22T02:29:15;98443.13;;;7.86;100.00
29935;BME280;19905;53.370;-6.314;2023-03-22T02:38:29;98462.09;;;7.72;100.00
29935;BME280;19905;53.370;-6.314;2023-03-22T02:41:11;98482.78;;;7.67;100.00
29935;BME280;19905;53.370;-6.314;2023-03-22T02:43:51;98470.56;;;7.58;100.00
29935;BME280;19905;53.370;-6.314;2023-03-22T02:46:31;98462.38;;;7.61;100.00
29935;BME280;19905;53.370;-6.314;2023-03-22T02:49:13;98493.31;;;7.49;100.00
29935;BME280;19905;53.370;-6.314;2023-03-22T02:51:49;98506.16;;;7.52;100.00
29935;BME280;19905;53.370;-6.314;2023-03-22T02:54:21;98511.16;;;7.46;100.00
29935;BME280;19905;53.370;-6.314;2023-03-22T02:56:58;98512.50;;;7.50;100.00
29935;BME280;19905;53.370;-6.314;2023-03-22T02:59:30;98513.78;;;7.46;100.00
29935;BME280;19905;53.370;-6.314;2023-03-22T03:02:02;98520.22;;;7.51;100.00
29935;BME280;19905;53.370;-6.314;2023-03-22T03:04:35;98535.13;;;7.43;100.00
29935;BME280;19905;53.370;-6.314;2023-03-22T03:07:07;98541.50;;;7.40;100.00
29935;BME280;19905;53.370;-6.314;2023-03-22T03:09:39;98535.88;;;7.35;100.00
29935;BME280;19905;53.370;-6.314;2023-03-22T03:12:16;98532.09;;;7.37;100.00
29935;BME280;19905;53.370;-6.314;2023-03-22T03:14:47;98546.56;;;7.24;100.00
29935;BME280;19905;53.370;-6.314;2023-03-22T03:17:33;98537.22;;;7.21;100.00
29935;BME280;19905;53.370;-6.314;2023-03-22T03:20:20;98553.84;;;7.12;100.00
29935;BME280;19905;53.370;-6.314;2023-03-22T03:23:02;98567.25;;;7.09;100.00
29935;BME280;19905;53.370;-6.314;2023-03-22T03:25:38;98568.84;;;7.02;100.00
29935;BME280;19905;53.370;-6.314;2023-03-22T03:28:16;98567.75;;;6.95;100.00
29935;BME280;19905;53.370;-6.314;2023-03-22T03:30:59;98571.28;;;6.85;100.00
29935;BME280;19905;53.370;-6.314;2023-03-22T03:33:33;98584.94;;;6.89;100.00
29935;BME280;19905;53.370;-6.314;2023-03-22T03:36:08;98574.28;;;6.91;100.00
29935;BME280;19905;53.370;-6.314;2023-03-22T03:38:42;98575.53;;;6.86;100.00
29935;BME280;19905;53.370;-6.314;2023-03-22T03:41:14;98587.59;;;6.79;100.00
29935;BME280;19905;53.370;-6.314;2023-03-22T03:43:46;98597.13;;;6.80;100.00
29935;BME280;19905;53.370;-6.314;2023-03-22T03:46:15;98590.78;;;6.73;100.00
29935;BME280;19905;53.370;-6.314;2023-03-22T03:48:46;98597.56;;;6.76;100.00
29935;BME280;19905;53.370;-6.314;2023-03-22T03:51:15;98616.63;;;6.68;100.00
29935;BME280;19905;53.370;-6.314;2023-03-22T03:53:45;98619.13;;;6.70;100.00
29935;BME280;19905;53.370;-6.314;2023-03-22T03:56:13;98607.13;;;6.67;100.00
29935;BME280;19905;53.370;-6.314;2023-03-22T03:58:41;98620.28;;;6.57;100.00
29935;BME280;19905;53.370;-6.314;2023-03-22T04:01:11;98626.22;;;6.50;100.00
29935;BME280;19905;53.370;-6.314;2023-03-22T04:03:40;98652.28;;;6.61;100.00
29935;BME280;19905;53.370;-6.314;2023-03-22T04:06:08;98636.72;;;6.50;100.00
29935;BME280;19905;53.370;-6.314;2023-03-22T04:08:38;98646.50;;;6.57;100.00
29935;BME280;19905;53.370;-6.314;2023-03-22T04:11:07;98646.53;;;6.48;100.00
29935;BME280;19905;53.370;-6.314;2023-03-22T04:13:36;98659.63;;;6.48;100.00
29935;BME280;19905;53.370;-6.314;2023-03-22T04:16:05;98654.53;;;6.46;100.00
29935;BME280;19905;53.370;-6.314;2023-03-22T04:18:40;98659.09;;;6.44;100.00
29935;BME280;19905;53.370;-6.314;2023-03-22T04:21:08;98665.72;;;6.48;100.00
29935;BME280;19905;53.370;-6.314;2023-03-22T04:23:41;98680.22;;;6.43;100.00
29935;BME280;19905;53.370;-6.314;2023-03-22T04:26:12;98671.22;;;6.45;100.00
29935;BME280;19905;53.370;-6.314;2023-03-22T04:28:41;98680.75;;;6.36;100.00
29935;BME280;19905;53.370;-6.314;2023-03-22T04:31:10;98672.50;;;6.31;100.00
29935;BME280;19905;53.370;-6.314;2023-03-22T04:33:41;98680.25;;;6.33;100.00
29935;BME280;19905;53.370;-6.314;2023-03-22T04:36:13;98684.94;;;6.29;100.00
29935;BME280;19905;53.370;-6.314;2023-03-22T04:38:50;98681.47;;;6.29;100.00
29935;BME280;19905;53.370;-6.314;2023-03-22T04:41:18;98691.16;;;6.28;100.00
29935;BME280;19905;53.370;-6.314;2023-03-22T04:43:48;98692.94;;;6.28;100.00
29935;BME280;19905;53.370;-6.314;2023-03-22T04:46:17;98694.19;;;6.24;100.00
29935;BME280;19905;53.370;-6.314;2023-03-22T04:48:48;98699.28;;;6.16;100.00
29935;BME280;19905;53.370;-6.314;2023-03-22T04:51:17;98712.81;;;6.21;100.00
29935;BME280;19905;53.370;-6.314;2023-03-22T04:53:46;98698.72;;;6.22;100.00
29935;BME280;19905;53.370;-6.314;2023-03-22T04:56:15;98717.78;;;6.24;100.00
29935;BME280;19905;53.370;-6.314;2023-03-22T04:58:44;98720.94;;;6.18;100.00
29935;BME280;19905;53.370;-6.314;2023-03-22T05:01:16;98711.28;;;6.18;100.00
29935;BME280;19905;53.370;-6.314;2023-03-22T05:03:45;98720.41;;;6.14;100.00
29935;BME280;19905;53.370;-6.314;2023-03-22T05:06:15;98732.81;;;6.22;100.00
29935;BME280;19905;53.370;-6.314;2023-03-22T05:08:43;98724.53;;;6.26;100.00
29935;BME280;19905;53.370;-6.314;2023-03-22T05:11:15;98722.72;;;6.36;100.00
29935;BME280;19905;53.370;-6.314;2023-03-22T05:13:45;98732.13;;;6.29;100.00
29935;BME280;19905;53.370;-6.314;2023-03-22T05:16:14;98731.56;;;6.26;100.00
29935;BME280;19905;53.370;-6.314;2023-03-22T05:18:42;98738.88;;;6.22;100.00
29935;BME280;19905;53.370;-6.314;2023-03-22T05:21:15;98742.75;;;6.28;100.00
29935;BME280;19905;53.370;-6.314;2023-03-22T05:23:48;98762.47;;;6.22;100.00
29935;BME280;19905;53.370;-6.314;2023-03-22T05:26:18;98752.94;;;6.21;100.00
29935;BME280;19905;53.370;-6.314;2023-03-22T05:28:50;98749.66;;;6.19;100.00
29935;BME280;19905;53.370;-6.314;2023-03-22T05:31:21;98756.94;;;6.16;100.00
29935;BME280;19905;53.370;-6.314;2023-03-22T05:33:51;98758.88;;;6.14;100.00
29935;BME280;19905;53.370;-6.314;2023-03-22T05:36:21;98762.03;;;6.17;100.00
29935;BME280;19905;53.370;-6.314;2023-03-22T05:38:50;98752.81;;;6.23;100.00
29935;BME280;19905;53.370;-6.314;2023-03-22T05:41:18;98761.94;;;6.28;100.00
29935;BME280;19905;53.370;-6.314;2023-03-22T05:43:47;98752.69;;;6.24;100.00
29935;BME280;19905;53.370;-6.314;2023-03-22T05:46:18;98755.44;;;6.32;100.00
29935;BME280;19905;53.370;-6.314;2023-03-22T05:48:52;98755.16;;;6.26;100.00
29935;BME280;19905;53.370;-6.314;2023-03-22T05:51:23;98766.34;;;6.28;100.00
29935;BME280;19905;53.370;-6.314;2023-03-22T05:53:53;98764.97;;;6.24;100.00
29935;BME280;19905;53.370;-6.314;2023-03-22T05:56:22;98752.38;;;6.27;100.00
29935;BME280;19905;53.370;-6.314;2023-03-22T05:58:53;98762.59;;;6.30;100.00
29935;BME280;19905;53.370;-6.314;2023-03-22T06:01:22;98765.66;;;6.35;100.00
29935;BME280;19905;53.370;-6.314;2023-03-22T06:03:51;98763.16;;;6.34;100.00
29935;BME280;19905;53.370;-6.314;2023-03-22T06:06:20;98760.28;;;6.37;100.00
29935;BME280;19905;53.370;-6.314;2023-03-22T06:08:53;98756.13;;;6.34;100.00
29935;BME280;19905;53.370;-6.314;2023-03-22T06:11:39;98732.53;;;6.44;100.00
29935;BME280;19905;53.370;-6.314;2023-03-22T06:14:10;98742.75;;;6.38;100.00
29935;BME280;19905;53.370;-6.314;2023-03-22T06:16:39;98750.63;;;6.38;100.00
29935;BME280;19905;53.370;-6.314;2023-03-22T06:19:08;98755.88;;;6.28;100.00
29935;BME280;19905;53.370;-6.314;2023-03-22T06:21:36;98755.88;;;6.28;100.00
29935;BME280;19905;53.370;-6.314;2023-03-22T06:24:07;98761.63;;;6.22;100.00
29935;BME280;19905;53.370;-6.314;2023-03-22T06:26:36;98753.09;;;6.20;100.00
29935;BME280;19905;53.370;-6.314;2023-03-22T06:29:05;98755.97;;;6.17;100.00
29935;BME280;19905;53.370;-6.314;2023-03-22T06:31:34;98755.31;;;6.15;100.00
29935;BME280;19905;53.370;-6.314;2023-03-22T06:34:12;98754.59;;;6.13;100.00
29935;BME280;19905;53.370;-6.314;2023-03-22T06:36:41;98753.50;;;6.05;100.00
29935;BME280;19905;53.370;-6.314;2023-03-22T06:39:12;98758.03;;;6.13;100.00
29935;BME280;19905;53.370;-6.314;2023-03-22T06:41:41;98757.78;;;6.16;100.00
29935;BME280;19905;53.370;-6.314;2023-03-22T06:44:10;98753.50;;;6.25;100.00
29935;BME280;19905;53.370;-6.314;2023-03-22T06:46:38;98752.38;;;6.18;100.00
29935;BME280;19905;53.370;-6.314;2023-03-22T06:49:07;98755.97;;;6.17;100.00
29935;BME280;19905;53.370;-6.314;2023-03-22T06:51:37;98761.38;;;6.15;100.00
29935;BME280;19905;53.370;-6.314;2023-03-22T06:54:05;98761.38;;;6.15;100.00
29935;BME280;19905;53.370;-6.314;2023-03-22T06:56:37;98756.41;;;6.22;100.00
29935;BME280;19905;53.370;-6.314;2023-03-22T06:59:06;98754.75;;;6.21;100.00
29935;BME280;19905;53.370;-6.314;2023-03-22T07:01:35;98751.16;;;6.22;100.00
29935;BME280;19905;53.370;-6.314;2023-03-22T07:04:03;98747.03;;;6.29;100.00
29935;BME280;19905;53.370;-6.314;2023-03-22T07:06:32;98756.38;;;6.31;100.00
29935;BME280;19905;53.370;-6.314;2023-03-22T07:09:03;98754.75;;;6.40;100.00
29935;BME280;19905;53.370;-6.314;2023-03-22T07:11:33;98753.50;;;6.34;100.00
29935;BME280;19905;53.370;-6.314;2023-03-22T07:14:04;98750.72;;;6.36;100.00
29935;BME280;19905;53.370;-6.314;2023-03-22T07:16:32;98736.78;;;6.35;100.00
29935;BME280;19905;53.370;-6.314;2023-03-22T07:19:01;98739.00;;;6.40;100.00
29935;BME280;19905;53.370;-6.314;2023-03-22T07:21:32;98735.28;;;6.43;100.00
29935;BME280;19905;53.370;-6.314;2023-03-22T07:24:01;98735.56;;;6.49;100.00
29935;BME280;19905;53.370;-6.314;2023-03-22T07:26:30;98731.25;;;6.58;100.00
29935;BME280;19905;53.370;-6.314;2023-03-22T07:28:59;98731.25;;;6.58;100.00
29935;BME280;19905;53.370;-6.314;2023-03-22T07:31:29;98740.25;;;6.65;100.00
29935;BME280;19905;53.370;-6.314;2023-03-22T07:34:02;98744.50;;;6.66;100.00
29935;BME280;19905;53.370;-6.314;2023-03-22T07:36:32;98730.56;;;6.66;100.00
29935;BME280;19905;53.370;-6.314;2023-03-22T07:39:00;98732.50;;;6.63;100.00
29935;BME280;19905;53.370;-6.314;2023-03-22T07:41:29;98719.91;;;6.67;100.00
29935;BME280;19905;53.370;-6.314;2023-03-22T07:43:57;98723.50;;;6.76;100.00
29935;BME280;19905;53.370;-6.314;2023-03-22T07:46:44;98733.41;;;6.82;100.00
29935;BME280;19905;53.370;-6.314;2023-03-22T07:49:13;98738.09;;;6.98;100.00
29935;BME280;19905;53.370;-6.314;2023-03-22T07:51:41;98715.72;;;6.94;100.00
29935;BME280;19905;53.370;-6.314;2023-03-22T07:54:12;98728.41;;;6.98;100.00
29935;BME280;19905;53.370;-6.314;2023-03-22T07:56:58;98729.09;;;7.00;100.00
29935;BME280;19905;53.370;-6.314;2023-03-22T07:59:27;98719.16;;;6.94;100.00
29935;BME280;19905;53.370;-6.314;2023-03-22T08:01:58;98722.63;;;6.95;100.00
29935;BME280;19905;53.370;-6.314;2023-03-22T08:04:27;98735.72;;;7.04;100.00
29935;BME280;19905;53.370;-6.314;2023-03-22T08:06:56;98731.00;;;7.08;100.00
29935;BME280;19905;53.370;-6.314;2023-03-22T08:09:26;98736.38;;;7.16;100.00
29935;BME280;19905;53.370;-6.314;2023-03-22T08:11:54;98726.41;;;7.20;100.00
29935;BME280;19905;53.370;-6.314;2023-03-22T08:14:23;98723.75;;;7.29;100.00
29935;BME280;19905;53.370;-6.314;2023-03-22T08:17:05;98734.63;;;7.34;100.00
29935;BME280;19905;53.370;-6.314;2023-03-22T08:19:34;98726.00;;;7.42;100.00
29935;BME280;19905;53.370;-6.314;2023-03-22T08:22:03;98725.13;;;7.51;100.00
29935;BME280;19905;53.370;-6.314;2023-03-22T08:24:33;98721.94;;;7.57;100.00
29935;BME280;19905;53.370;-6.314;2023-03-22T08:27:02;98729.59;;;7.69;100.00
29935;BME280;19905;53.370;-6.314;2023-03-22T08:29:30;98708.75;;;7.67;100.00
29935;BME280;19905;53.370;-6.314;2023-03-22T08:31:58;98731.78;;;7.73;100.00
29935;BME280;19905;53.370;-6.314;2023-03-22T08:34:30;98721.81;;;7.77;100.00
29935;BME280;19905;53.370;-6.314;2023-03-22T08:36:59;98709.00;;;7.92;100.00
29935;BME280;19905;53.370;-6.314;2023-03-22T08:39:28;98709.00;;;7.92;100.00
29935;BME280;19905;53.370;-6.314;2023-03-22T08:41:56;98707.59;;;7.97;100.00
29935;BME280;19905;53.370;-6.314;2023-03-22T08:44:26;98700.06;;;8.02;100.00
29935;BME280;19905;53.370;-6.314;2023-03-22T08:46:56;98697.00;;;8.07;100.00
29935;BME280;19905;53.370;-6.314;2023-03-22T08:49:24;98707.97;;;8.20;100.00
29935;BME280;19905;53.370;-6.314;2023-03-22T08:51:55;98703.19;;;8.24;100.00
29935;BME280;19905;53.370;-6.314;2023-03-22T08:54:24;98703.81;;;8.35;100.00
29935;BME280;19905;53.370;-6.314;2023-03-22T08:56:59;98696.00;;;8.44;100.00
29935;BME280;19905;53.370;-6.314;2023-03-22T08:59:29;98709.06;;;8.35;100.00
29935;BME280;19905;53.370;-6.314;2023-03-22T09:01:57;98698.53;;;8.35;100.00
29935;BME280;19905;53.370;-6.314;2023-03-22T09:04:27;98712.38;;;8.37;100.00
29935;BME280;19905;53.370;-6.314;2023-03-22T09:06:57;98688.16;;;8.52;100.00
29935;BME280;19905;53.370;-6.314;2023-03-22T09:09:25;98680.31;;;8.60;100.00
29935;BME280;19905;53.370;-6.314;2023-03-22T09:11:54;98688.44;;;8.67;100.00
29935;BME280;19905;53.370;-6.314;2023-03-22T09:14:23;98681.28;;;8.77;100.00
29935;BME280;19905;53.370;-6.314;2023-03-22T09:16:52;98660.16;;;8.95;100.00
29935;BME280;19905;53.370;-6.314;2023-03-22T09:19:21;98637.44;;;9.02;100.00
29935;BME280;19905;53.370;-6.314;2023-03-22T09:21:50;98652.00;;;9.14;100.00
29935;BME280;19905;53.370;-6.314;2023-03-22T09:24:20;98645.13;;;9.21;100.00
29935;BME280;19905;53.370;-6.314;2023-03-22T09:26:49;98670.34;;;9.32;100.00
29935;BME280;19905;53.370;-6.314;2023-03-22T09:29:17;98644.13;;;9.22;100.00
29935;BME280;19905;53.370;-6.314;2023-03-22T09:31:46;98657.56;;;9.11;100.00
29935;BME280;19905;53.370;-6.314;2023-03-22T09:34:16;98663.34;;;9.14;100.00
29935;BME280;19905;53.370;-6.314;2023-03-22T09:36:45;98655.41;;;9.06;100.00
29935;BME280;19905;53.370;-6.314;2023-03-22T09:39:13;98647.72;;;9.13;100.00
29935;BME280;19905;53.370;-6.314;2023-03-22T09:41:47;98652.94;;;9.05;100.00
29935;BME280;19905;53.370;-6.314;2023-03-22T09:44:20;98655.53;;;8.97;100.00
29935;BME280;19905;53.370;-6.314;2023-03-22T09:46:54;98664.41;;;8.96;100.00
29935;BME280;19905;53.370;-6.314;2023-03-22T09:49:25;98669.22;;;9.00;100.00
29935;BME280;19905;53.370;-6.314;2023-03-22T09:51:56;98711.81;;;8.96;100.00
29935;BME280;19905;53.370;-6.314;2023-03-22T09:54:31;98667.72;;;8.98;100.00
29935;BME280;19905;53.370;-6.314;2023-03-22T09:57:05;98679.91;;;8.99;100.00
29935;BME280;19905;53.370;-6.314;2023-03-22T09:59:41;98666.59;;;9.00;100.00
29935;BME280;19905;53.370;-6.314;2023-03-22T10:02:26;98662.59;;;8.96;100.00
29935;BME280;19905;53.370;-6.314;2023-03-22T10:05:08;98665.06;;;8.89;100.00
29935;BME280;19905;53.370;-6.314;2023-03-22T10:07:55;98685.44;;;8.87;100.00
29935;BME280;19905;53.370;-6.314;2023-03-22T10:10:29;98670.97;;;8.91;100.00
29935;BME280;19905;53.370;-6.314;2023-03-22T10:13:05;98662.84;;;9.11;100.00
29935;BME280;19905;53.370;-6.314;2023-03-22T10:15:43;98655.06;;;9.35;100.00
29935;BME280;19905;53.370;-6.314;2023-03-22T10:18:15;98656.13;;;9.67;100.00
29935;BME280;19905;53.370;-6.314;2023-03-22T10:20:52;98656.81;;;9.93;100.00
29935;BME280;19905;53.370;-6.314;2023-03-22T10:23:28;98657.97;;;9.99;100.00
29935;BME280;19905;53.370;-6.314;2023-03-22T10:25:59;98640.66;;;9.97;100.00
29935;BME280;19905;53.370;-6.314;2023-03-22T10:28:36;98651.06;;;10.14;100.00
29935;BME280;19905;53.370;-6.314;2023-03-22T10:31:11;98667.72;;;10.39;100.00
29935;BME280;19905;53.370;-6.314;2023-03-22T10:33:45;98639.31;;;10.66;100.00
29935;BME280;19905;53.370;-6.314;2023-03-22T10:36:22;98640.94;;;10.83;100.00
29935;BME280;19905;53.370;-6.314;2023-03-22T10:38:55;98622.44;;;10.83;100.00
29935;BME280;19905;53.370;-6.314;2023-03-22T10:41:26;98648.03;;;10.83;100.00
29935;BME280;19905;53.370;-6.314;2023-03-22T10:44:00;98624.38;;;10.89;100.00
29935;BME280;19905;53.370;-6.314;2023-03-22T10:46:33;98671.06;;;11.05;100.00
29935;BME280;19905;53.370;-6.314;2023-03-22T10:49:05;98627.69;;;11.00;100.00
29935;BME280;19905;53.370;-6.314;2023-03-22T10:51:39;98616.03;;;10.78;100.00
29935;BME280;19905;53.370;-6.314;2023-03-22T10:54:11;98616.81;;;10.86;100.00
29935;BME280;19905;53.370;-6.314;2023-03-22T10:56:41;98618.19;;;10.74;100.00
29935;BME280;19905;53.370;-6.314;2023-03-22T10:59:46;98647.19;;;10.90;100.00
29935;BME280;19905;53.370;-6.314;2023-03-22T11:02:17;98626.41;;;10.79;100.00
29935;BME280;19905;53.370;-6.314;2023-03-22T11:04:48;98619.06;;;11.06;100.00
29935;BME280;19905;53.370;-6.314;2023-03-22T11:07:30;98616.75;;;11.42;100.00
29935;BME280;19905;53.370;-6.314;2023-03-22T11:10:22;98620.72;;;11.69;100.00
29935;BME280;19905;53.370;-6.314;2023-03-22T11:12:55;98614.00;;;11.81;100.00
29935;BME280;19905;53.370;-6.314;2023-03-22T11:15:47;98574.41;;;11.73;100.00
29935;BME280;19905;53.370;-6.314;2023-03-22T11:18:19;98613.34;;;11.87;100.00
29935;BME280;19905;53.370;-6.314;2023-03-22T11:20:55;98619.66;;;11.78;100.00
29935;BME280;19905;53.370;-6.314;2023-03-22T11:23:25;98583.75;;;11.84;100.00
29935;BME280;19905;53.370;-6.314;2023-03-22T11:25:59;98615.16;;;11.56;100.00
29935;BME280;19905;53.370;-6.314;2023-03-22T11:28:35;98587.63;;;11.73;100.00
29935;BME280;19905;53.370;-6.314;2023-03-22T11:31:09;98601.00;;;11.71;100.00
29935;BME280;19905;53.370;-6.314;2023-03-22T11:33:44;98619.03;;;11.99;100.00
29935;BME280;19905;53.370;-6.314;2023-03-22T11:36:21;98572.31;;;11.91;100.00
29935;BME280;19905;53.370;-6.314;2023-03-22T11:38:56;98571.88;;;11.80;100.00
29935;BME280;19905;53.370;-6.314;2023-03-22T11:41:26;98573.38;;;11.82;100.00
29935;BME280;19905;53.370;-6.314;2023-03-22T11:43:57;98571.38;;;11.84;100.00
29935;BME280;19905;53.370;-6.314;2023-03-22T11:46:30;98569.69;;;11.60;100.00
29935;BME280;19905;53.370;-6.314;2023-03-22T11:49:03;98568.59;;;11.55;100.00
29935;BME280;19905;53.370;-6.314;2023-03-22T11:51:36;98564.03;;;11.40;100.00
29935;BME280;19905;53.370;-6.314;2023-03-22T11:54:07;98581.56;;;11.64;100.00
29935;BME280;19905;53.370;-6.314;2023-03-22T11:56:39;98561.47;;;11.55;100.00
29935;BME280;19905;53.370;-6.314;2023-03-22T11:59:13;98542.28;;;11.76;100.00
29935;BME280;19905;53.370;-6.314;2023-03-22T12:01:48;98548.94;;;11.72;100.00
29935;BME280;19905;53.370;-6.314;2023-03-22T12:04:25;98544.78;;;11.78;100.00
29935;BME280;19905;53.370;-6.314;2023-03-22T12:06:59;98559.53;;;11.95;100.00
29935;BME280;19905;53.370;-6.314;2023-03-22T12:09:37;98549.63;;;12.12;100.00
29935;BME280;19905;53.370;-6.314;2023-03-22T12:12:12;98549.03;;;12.39;100.00
29935;BME280;19905;53.370;-6.314;2023-03-22T12:14:48;98547.09;;;12.33;100.00
29935;BME280;19905;53.370;-6.314;2023-03-22T12:17:27;98538.44;;;12.25;100.00
29935;BME280;19905;53.370;-6.314;2023-03-22T12:20:03;98533.28;;;12.08;100.00
29935;BME280;19905;53.370;-6.314;2023-03-22T12:22:37;98530.53;;;12.02;100.00
29935;BME280;19905;53.370;-6.314;2023-03-22T12:25:12;98530.66;;;12.23;100.00
29935;BME280;19905;53.370;-6.314;2023-03-22T12:27:46;98536.38;;;11.97;100.00
29935;BME280;19905;53.370;-6.314;2023-03-22T12:30:19;98507.19;;;12.20;100.00
29935;BME280;19905;53.370;-6.314;2023-03-22T12:32:57;98497.34;;;12.43;100.00
29935;BME280;19905;53.370;-6.314;2023-03-22T12:35:30;98510.56;;;12.73;100.00
29935;BME280;19905;53.370;-6.314;2023-03-22T12:38:05;98513.38;;;12.86;100.00
29935;BME280;19905;53.370;-6.314;2023-03-22T12:40:40;98510.00;;;12.92;100.00
29935;BME280;19905;53.370;-6.314;2023-03-22T12:43:14;98499.34;;;13.07;100.00
29935;BME280;19905;53.370;-6.314;2023-03-22T12:45:48;98497.19;;;13.32;100.00
29935;BME280;19905;53.370;-6.314;2023-03-22T12:48:30;98505.13;;;13.75;100.00
29935;BME280;19905;53.370;-6.314;2023-03-22T12:51:03;98501.91;;;13.37;100.00
29935;BME280;19905;53.370;-6.314;2023-03-22T12:53:34;98499.81;;;13.11;100.00
29935;BME280;19905;53.370;-6.314;2023-03-22T12:56:10;98480.81;;;13.50;100.00
29935;BME280;19905;53.370;-6.314;2023-03-22T12:58:42;98487.19;;;13.56;100.00
29935;BME280;19905;53.370;-6.314;2023-03-22T13:01:22;98490.75;;;13.41;100.00
29935;BME280;19905;53.370;-6.314;2023-03-22T13:03:57;98467.41;;;13.30;100.00
29935;BME280;19905;53.370;-6.314;2023-03-22T13:06:33;98488.97;;;12.91;100.00
29935;BME280;19905;53.370;-6.314;2023-03-22T13:09:14;98451.41;;;12.87;100.00
29935;BME280;19905;53.370;-6.314;2023-03-22T13:11:45;98447.59;;;13.11;100.00
29935;BME280;19905;53.370;-6.314;2023-03-22T13:14:56;98470.66;;;12.96;100.00
29935;BME280;19905;53.370;-6.314;2023-03-22T13:17:40;98434.41;;;13.18;100.00
29935;BME280;19905;53.370;-6.314;2023-03-22T13:20:30;98428.19;;;13.26;100.00
29935;BME280;19905;53.370;-6.314;2023-03-22T13:23:04;98444.78;;;13.34;100.00
29935;BME280;19905;53.370;-6.314;2023-03-22T13:25:56;98438.53;;;13.42;100.00
29935;BME280;19905;53.370;-6.314;2023-03-22T13:28:26;98426.50;;;13.67;100.00